Time;durP1;ratioP1;P1;durP2;ratioP2;P2;SDS_P1;SDS_P2;PMS_P1;PMS_P2;Temp;Humidity;BMP_temperature;BMP_pressure;BME280_temperature;BME280_humidity;BME280_pressure;Samples;Min_cycle;Max_cycle;Signal;HPM_P1;HPM_P2
2021/09/08 00:01:14;;;;;;;2.15;0.80;;;;;;;12.27;96.45;101697.84;5053783;28;20040;-85
2021/09/08 00:03:47;;;;;;;0.75;0.75;;;;;;;12.36;96.97;101693.47;5052347;28;20115;-86
2021/09/08 00:06:20;;;;;;;0.63;0.63;;;;;;;12.39;96.65;101688.31;5053097;28;20049;-86
2021/09/08 00:08:54;;;;;;;0.80;0.80;;;;;;;12.37;96.60;101698.69;5052713;28;20053;-86
2021/09/08 00:11:27;;;;;;;0.60;0.60;;;;;;;12.39;96.72;101691.03;5072637;28;20047;-84
2021/09/08 00:14:01;;;;;;;0.70;0.70;;;;;;;12.41;96.43;101697.06;5071519;28;20056;-86
2021/09/08 00:16:35;;;;;;;0.77;0.77;;;;;;;12.44;95.83;101694.88;5071228;28;20041;-85
2021/09/08 00:19:08;;;;;;;0.80;0.80;;;;;;;12.51;95.74;101698.19;5070480;28;20052;-86
2021/09/08 00:21:41;;;;;;;0.70;0.70;;;;;;;12.49;95.60;101701.19;5071194;28;20368;-85
2021/09/08 00:24:14;;;;;;;0.80;0.80;;;;;;;12.51;95.57;101688.09;5072781;28;20040;-86
2021/09/08 00:26:43;;;;;;;1.52;0.90;;;;;;;12.46;96.15;101696.25;5055555;28;20045;-85
2021/09/08 00:29:16;;;;;;;0.80;0.80;;;;;;;12.41;96.52;101701.69;5052944;28;20045;-85
2021/09/08 00:31:46;;;;;;;0.82;0.82;;;;;;;12.39;95.86;101690.25;5051974;28;20037;-85
2021/09/08 00:34:20;;;;;;;0.80;0.80;;;;;;;12.40;95.83;101689.97;5052622;28;20397;-85
2021/09/08 00:36:55;;;;;;;0.80;0.80;;;;;;;12.39;96.04;101691.03;5050570;28;20051;-85
2021/09/08 00:39:29;;;;;;;1.08;0.90;;;;;;;12.40;96.29;101695.44;5052798;28;20051;-86
2021/09/08 00:41:58;;;;;;;0.80;0.80;;;;;;;12.45;96.47;101691.06;5067357;28;20500;-86
2021/09/08 00:44:27;;;;;;;1.00;0.85;;;;;;;12.50;96.84;101688.38;5072379;28;20055;-85
2021/09/08 00:47:02;;;;;;;0.80;0.80;;;;;;;12.55;95.87;101691.94;5070462;28;20052;-85
2021/09/08 00:49:35;;;;;;;1.88;0.88;;;;;;;12.56;95.94;101685.38;5072702;28;20382;-85
2021/09/08 00:52:11;;;;;;;1.10;0.82;;;;;;;12.58;95.87;101687.81;5065446;28;20059;-85
2021/09/08 00:54:47;;;;;;;0.80;0.80;;;;;;;12.57;95.62;101680.75;5070332;28;20044;-85
2021/09/08 00:57:22;;;;;;;0.90;0.90;;;;;;;12.59;95.92;101681.28;5056206;28;20562;-86
2021/09/08 00:59:51;;;;;;;1.23;0.75;;;;;;;12.54;95.77;101675.78;5057757;28;20051;-86
2021/09/08 01:02:27;;;;;;;0.77;0.77;;;;;;;12.51;95.72;101679.06;5065668;28;20044;-85
2021/09/08 01:04:56;;;;;;;1.48;1.00;;;;;;;12.47;95.89;101669.78;5072742;28;20048;-85
2021/09/08 01:07:24;;;;;;;1.00;0.90;;;;;;;12.41;96.22;101663.47;5063626;28;20040;-85
2021/09/08 01:09:53;;;;;;;0.95;0.90;;;;;;;12.44;96.12;101679.31;5058224;28;20045;-84
2021/09/08 01:12:27;;;;;;;0.80;0.80;;;;;;;12.49;96.47;101671.16;5062293;28;20047;-85
2021/09/08 01:14:58;;;;;;;1.08;0.82;;;;;;;12.45;96.70;101667.31;5055191;28;20049;-84
2021/09/08 01:17:28;;;;;;;2.45;1.10;;;;;;;12.44;96.84;101667.59;5062188;28;20049;-84
2021/09/08 01:20:02;;;;;;;1.70;1.00;;;;;;;12.25;97.33;101644.31;5062060;28;20059;-85
2021/09/08 01:22:32;;;;;;;1.00;0.90;;;;;;;12.19;97.70;101633.66;5059442;28;20048;-85
2021/09/08 01:25:07;;;;;;;1.45;0.80;;;;;;;12.38;98.01;101664.84;5060646;28;20488;-86
2021/09/08 01:27:40;;;;;;;0.68;0.65;;;;;;;12.42;98.06;101665.13;5062455;28;20045;-84
2021/09/08 01:30:09;;;;;;;1.10;0.90;;;;;;;12.40;97.96;101665.41;5065270;28;20076;-84
2021/09/08 01:32:43;;;;;;;2.15;0.90;;;;;;;12.39;97.60;101666.47;5057900;28;20056;-84
2021/09/08 01:35:16;;;;;;;1.58;0.80;;;;;;;12.36;97.81;101664.28;5058054;28;20044;-85
2021/09/08 01:37:50;;;;;;;0.88;0.88;;;;;;;12.28;97.81;101647.59;5059171;28;20056;-85
2021/09/08 01:40:24;;;;;;;1.13;0.82;;;;;;;12.36;97.65;101658.84;5058631;28;20045;-84
2021/09/08 01:42:58;;;;;;;0.88;0.73;;;;;;;12.32;97.54;101654.16;5058704;28;20496;-84
2021/09/08 01:45:31;;;;;;;0.77;0.77;;;;;;;12.34;97.91;101652.81;5056545;28;20048;-84
2021/09/08 01:48:05;;;;;;;0.90;0.82;;;;;;;12.27;96.97;101654.97;5058926;28;20053;-86
2021/09/08 01:50:38;;;;;;;1.40;1.10;;;;;;;12.24;97.79;101650.88;5062196;28;20059;-85
2021/09/08 01:53:12;;;;;;;1.00;0.90;;;;;;;12.21;96.98;101656.88;5055713;28;20056;-85
2021/09/08 01:55:47;;;;;;;1.10;1.00;;;;;;;12.18;97.33;101653.84;5051456;28;20048;-85
2021/09/08 01:58:20;;;;;;;0.93;0.88;;;;;;;12.20;97.12;101659.88;5053180;28;20517;-85
2021/09/08 02:00:54;;;;;;;1.48;1.00;;;;;;;12.16;97.52;101656.03;5069022;28;20052;-85
2021/09/08 02:03:27;;;;;;;1.23;0.90;;;;;;;12.17;97.69;101649.50;5052193;28;20041;-85
2021/09/08 02:06:00;;;;;;;1.10;1.00;;;;;;;12.07;97.85;101639.34;5050354;28;20049;-85
2021/09/08 02:08:28;;;;;;;1.80;1.00;;;;;;;12.14;97.78;101663.63;5056501;28;20060;-84
2021/09/08 02:11:02;;;;;;;1.05;0.95;;;;;;;12.05;97.85;101650.50;5056262;28;20056;-85
2021/09/08 02:13:38;;;;;;;0.80;0.80;;;;;;;12.05;98.43;101650.50;5056073;28;20460;-84
2021/09/08 02:16:11;;;;;;;0.82;0.82;;;;;;;12.07;98.21;101650.28;5050963;28;20425;-85
2021/09/08 02:18:44;;;;;;;0.80;0.80;;;;;;;12.13;98.24;101649.19;5069573;28;20048;-85
2021/09/08 02:21:20;;;;;;;0.80;0.80;;;;;;;12.03;97.12;101651.88;5055967;28;20132;-85
2021/09/08 02:23:53;;;;;;;1.10;1.00;;;;;;;11.99;98.42;101658.97;5058689;28;20045;-85
2021/09/08 02:26:28;;;;;;;1.00;0.90;;;;;;;11.97;98.09;101666.56;5058705;28;20048;-85
2021/09/08 02:29:01;;;;;;;0.95;0.95;;;;;;;11.94;98.08;101659.72;5052590;28;20045;-85
2021/09/08 02:31:34;;;;;;;1.13;1.02;;;;;;;11.95;98.75;101661.38;5058318;28;20056;-84
2021/09/08 02:34:03;;;;;;;1.00;0.90;;;;;;;11.94;98.42;101657.00;5052890;28;20044;-85
2021/09/08 02:36:36;;;;;;;1.52;0.98;;;;;;;11.93;98.59;101663.50;5053674;28;20059;-85
2021/09/08 02:39:10;;;;;;;1.20;1.05;;;;;;;11.94;98.73;101667.06;5049854;28;20045;-85
2021/09/08 02:41:44;;;;;;;1.23;0.98;;;;;;;11.95;99.05;101666.03;5055739;28;20048;-85
2021/09/08 02:44:17;;;;;;;1.92;1.10;;;;;;;11.94;99.26;101661.63;5060849;28;20583;-85
2021/09/08 02:46:50;;;;;;;1.55;1.00;;;;;;;11.94;99.33;101656.16;5065256;28;20179;-84
2021/09/08 02:49:24;;;;;;;1.25;1.00;;;;;;;11.96;99.23;101659.47;5054835;28;20049;-85
2021/09/08 02:51:57;;;;;;;1.23;1.00;;;;;;;11.90;99.86;101667.63;5054092;28;20053;-85
2021/09/08 02:54:30;;;;;;;1.10;1.00;;;;;;;11.82;99.69;101648.19;5061695;28;20413;-85
2021/09/08 02:57:05;;;;;;;1.10;1.00;;;;;;;11.87;100.00;101659.13;5065510;28;20052;-85
2021/09/08 02:59:38;;;;;;;1.33;1.05;;;;;;;11.87;100.00;101643.56;5066709;28;20053;-85
2021/09/08 03:02:11;;;;;;;1.45;1.00;;;;;;;11.80;100.00;101647.63;5090299;28;20047;-85
2021/09/08 03:04:44;;;;;;;1.10;1.00;;;;;;;11.85;100.00;101644.94;5081483;28;20060;-84
2021/09/08 03:07:18;;;;;;;2.20;1.20;;;;;;;11.86;100.00;101654.75;5054331;28;20056;-85
2021/09/08 03:09:52;;;;;;;2.28;1.10;;;;;;;11.82;100.00;101656.38;5060888;28;20044;-85
2021/09/08 03:12:22;;;;;;;2.25;1.25;;;;;;;11.75;100.00;101640.22;5053456;28;20045;-85
2021/09/08 03:14:55;;;;;;;1.23;1.10;;;;;;;11.77;100.00;101651.72;5059117;28;20469;-84
2021/09/08 03:17:28;;;;;;;1.10;1.00;;;;;;;11.78;100.00;101645.19;5060200;28;20114;-85
2021/09/08 03:19:56;;;;;;;1.75;1.00;;;;;;;11.76;100.00;101644.59;5072851;28;20052;-85
2021/09/08 03:22:29;;;;;;;1.25;1.15;;;;;;;11.75;100.00;101634.78;5064600;28;20405;-85
2021/09/08 03:25:02;;;;;;;1.85;1.23;;;;;;;11.76;100.00;101639.16;5056947;28;20056;-85
2021/09/08 03:27:37;;;;;;;1.33;1.20;;;;;;;11.72;100.00;101636.16;5056342;28;20079;-84
2021/09/08 03:30:11;;;;;;;1.83;1.25;;;;;;;11.72;100.00;101630.69;5064680;28;20045;-85
2021/09/08 03:32:44;;;;;;;1.40;1.20;;;;;;;11.71;100.00;101630.94;5052955;28;20060;-84
2021/09/08 03:35:17;;;;;;;2.55;1.25;;;;;;;11.72;100.00;101627.97;5068696;28;20064;-84
2021/09/08 03:37:50;;;;;;;1.10;1.00;;;;;;;11.71;100.00;101629.03;5060284;28;20044;-85
2021/09/08 03:40:18;;;;;;;1.20;1.10;;;;;;;11.73;100.00;101617.88;5053688;28;20409;-85
2021/09/08 03:42:54;;;;;;;1.83;1.10;;;;;;;11.69;100.00;101616.75;5053893;28;20392;-85
2021/09/08 03:45:22;;;;;;;1.13;1.02;;;;;;;11.72;100.00;101614.34;5070618;28;20484;-84
2021/09/08 03:47:55;;;;;;;1.90;1.30;;;;;;;11.72;100.00;101618.94;5054645;28;20048;-83
2021/09/08 03:50:28;;;;;;;1.98;1.33;;;;;;;11.74;100.00;101612.16;5053503;28;20045;-84
2021/09/08 03:53:02;;;;;;;1.42;1.33;;;;;;;11.77;100.00;101612.72;5053548;28;20041;-85
2021/09/08 03:55:35;;;;;;;1.30;1.17;;;;;;;11.71;100.00;101614.56;5064083;28;20048;-84
2021/09/08 03:58:10;;;;;;;1.80;1.40;;;;;;;11.65;100.00;101612.91;5064434;28;20044;-84
2021/09/08 04:00:38;;;;;;;1.20;1.10;;;;;;;11.61;100.00;101612.63;5058241;28;20059;-84
2021/09/08 04:03:11;;;;;;;1.60;1.30;;;;;;;11.66;100.00;101614.56;5052750;28;20044;-84
2021/09/08 04:05:45;;;;;;;3.42;1.30;;;;;;;11.52;100.00;101609.56;5052631;28;20167;-84
2021/09/08 04:08:18;;;;;;;1.20;1.10;;;;;;;11.54;100.00;101610.13;5063366;28;20040;-84
2021/09/08 04:10:51;;;;;;;1.35;1.23;;;;;;;11.48;100.00;101608.47;5070372;28;20496;-85
2021/09/08 04:13:21;;;;;;;1.27;1.17;;;;;;;11.48;100.00;101603.00;5062126;28;20049;-84
2021/09/08 04:15:54;;;;;;;1.92;1.25;;;;;;;11.55;100.00;101598.13;5071249;28;20053;-85
2021/09/08 04:18:27;;;;;;;1.20;1.10;;;;;;;11.63;100.00;101602.28;5072880;28;20055;-84
2021/09/08 04:21:00;;;;;;;1.80;1.30;;;;;;;11.65;100.00;101605.53;5057027;28;20040;-84
2021/09/08 04:23:33;;;;;;;2.85;1.52;;;;;;;11.63;100.00;101594.09;5072827;28;20036;-85
2021/09/08 04:26:06;;;;;;;1.50;1.40;;;;;;;11.67;100.00;101595.22;5064238;28;20055;-84
2021/09/08 04:28:41;;;;;;;1.50;1.30;;;;;;;11.72;100.00;101600.69;5066366;28;20036;-84
2021/09/08 04:31:14;;;;;;;1.80;1.40;;;;;;;11.78;100.00;101600.72;5056023;28;20049;-83
2021/09/08 04:33:48;;;;;;;1.60;1.42;;;;;;;11.77;100.00;101599.09;5060994;28;20059;-84
2021/09/08 04:36:21;;;;;;;1.98;1.45;;;;;;;11.88;100.00;101598.84;5064849;28;20044;-83
2021/09/08 04:38:54;;;;;;;1.65;1.38;;;;;;;11.85;100.00;101602.13;5064781;28;20059;-84
2021/09/08 04:41:27;;;;;;;1.38;1.23;;;;;;;11.85;100.00;101601.31;5051913;28;20053;-83
2021/09/08 04:44:02;;;;;;;1.67;1.30;;;;;;;11.88;100.00;101604.31;5058898;28;20044;-82
2021/09/08 04:46:35;;;;;;;2.55;1.50;;;;;;;11.86;100.00;101611.09;5063059;28;20059;-83
2021/09/08 04:49:08;;;;;;;1.83;1.38;;;;;;;11.88;100.00;101607.03;5059304;28;20044;-84
2021/09/08 04:51:36;;;;;;;1.58;1.40;;;;;;;11.90;100.00;101604.03;5060409;28;20064;-84
2021/09/08 04:54:09;;;;;;;2.05;1.58;;;;;;;11.88;100.00;101603.50;5063531;28;20059;-84
2021/09/08 04:56:43;;;;;;;2.20;1.50;;;;;;;11.79;100.00;101586.81;5054355;28;20049;-85
2021/09/08 04:59:17;;;;;;;1.90;1.50;;;;;;;11.90;100.00;101596.69;5061051;28;20068;-84
2021/09/08 05:01:50;;;;;;;1.80;1.42;;;;;;;11.87;100.00;101599.94;5060977;28;20045;-84
2021/09/08 05:04:18;;;;;;;1.75;1.50;;;;;;;11.86;100.00;101601.03;5056357;28;20756;-84
2021/09/08 05:06:52;;;;;;;2.58;1.63;;;;;;;11.89;100.00;101599.66;5053424;28;20436;-84
2021/09/08 05:09:25;;;;;;;1.58;1.40;;;;;;;11.88;100.00;101612.50;5065085;28;20037;-84
2021/09/08 05:11:58;;;;;;;1.75;1.45;;;;;;;11.95;100.00;101611.47;5055433;28;20049;-84
2021/09/08 05:14:32;;;;;;;1.63;1.30;;;;;;;12.01;100.00;101607.66;5051748;28;20048;-83
2021/09/08 05:17:07;;;;;;;1.70;1.50;;;;;;;12.01;100.00;101604.94;5052036;28;20504;-84
2021/09/08 05:19:40;;;;;;;1.42;1.33;;;;;;;12.12;100.00;101605.81;5051664;28;20056;-84
2021/09/08 05:22:14;;;;;;;1.80;1.45;;;;;;;12.19;100.00;101609.09;5058083;28;20492;-84
2021/09/08 05:24:47;;;;;;;1.45;1.35;;;;;;;12.24;100.00;101611.84;5052577;28;20057;-84
2021/09/08 05:27:21;;;;;;;1.75;1.50;;;;;;;12.33;100.00;101618.44;5051993;28;20044;-84
2021/09/08 05:29:55;;;;;;;2.08;1.45;;;;;;;12.35;100.00;101616.25;5057998;28;20040;-84
2021/09/08 05:32:28;;;;;;;2.83;1.80;;;;;;;12.45;100.00;101620.91;5058458;28;20041;-84
2021/09/08 05:35:01;;;;;;;1.73;1.60;;;;;;;12.51;100.00;101617.13;5056926;28;20060;-83
2021/09/08 05:37:34;;;;;;;1.80;1.40;;;;;;;12.57;100.00;101617.94;5056698;28;20052;-85
2021/09/08 05:40:09;;;;;;;2.13;1.50;;;;;;;12.62;100.00;101622.59;5054618;28;20057;-84
2021/09/08 05:42:42;;;;;;;2.30;1.67;;;;;;;12.66;99.52;101618.22;5065323;28;20358;-84
2021/09/08 05:45:17;;;;;;;1.77;1.45;;;;;;;12.70;99.93;101614.66;5061346;28;20053;-84
2021/09/08 05:47:50;;;;;;;2.10;1.50;;;;;;;12.71;99.21;101619.03;5077042;28;20055;-84
2021/09/08 05:50:24;;;;;;;3.00;1.60;;;;;;;12.82;99.75;101613.59;5064076;28;20056;-84
2021/09/08 05:53:01;;;;;;;1.63;1.38;;;;;;;12.89;98.96;101616.88;5060515;28;20061;-84
2021/09/08 05:55:34;;;;;;;3.57;1.50;;;;;;;12.99;100.00;101621.53;5062076;28;20048;-84
2021/09/08 05:58:07;;;;;;;1.52;1.30;;;;;;;13.03;98.51;101628.91;5064934;28;20303;-84
2021/09/08 06:00:42;;;;;;;2.42;1.40;;;;;;;13.11;97.89;101622.06;5056919;28;20365;-85
2021/09/08 06:03:15;;;;;;;1.80;1.42;;;;;;;13.18;97.88;101619.88;5061893;28;20489;-88
2021/09/08 06:05:43;;;;;;;1.63;1.30;;;;;;;13.19;97.73;101616.06;5073541;28;20059;-86
2021/09/08 06:08:17;;;;;;;1.38;1.27;;;;;;;13.28;97.29;101627.25;5064333;28;20068;-87
2021/09/08 06:10:50;;;;;;;1.98;1.50;;;;;;;13.29;96.83;101620.69;5060291;28;20053;-85
2021/09/08 06:13:23;;;;;;;1.75;1.27;;;;;;;13.31;98.21;101626.69;5054540;28;20060;-86
2021/09/08 06:15:58;;;;;;;1.38;1.27;;;;;;;13.35;97.51;101624.25;5057666;28;20045;-82
2021/09/08 06:18:32;;;;;;;2.28;1.50;;;;;;;13.37;97.86;101617.44;5061714;28;20036;-89
2021/09/08 06:21:05;;;;;;;2.20;1.10;;;;;;;13.46;97.40;101625.06;5068041;28;20056;-88
2021/09/08 06:23:38;;;;;;;1.25;1.15;;;;;;;13.57;97.27;101613.81;5063300;28;20055;-83
2021/09/08 06:26:11;;;;;;;2.33;1.40;;;;;;;13.68;96.40;101613.81;5057926;28;20045;-89
2021/09/08 06:28:40;;;;;;;2.00;1.40;;;;;;;13.75;95.93;101612.44;5058889;28;20057;-87
2021/09/08 06:31:14;;;;;;;1.70;1.30;;;;;;;13.84;94.41;101612.66;5061245;28;20033;-87
2021/09/08 06:33:48;;;;;;;1.58;1.40;;;;;;;13.87;95.22;101600.34;5075001;28;20512;-88
2021/09/08 06:36:16;;;;;;;1.50;1.30;;;;;;;13.87;94.56;101587.47;5061112;28;20045;-88
2021/09/08 06:38:44;;;;;;;1.35;1.25;;;;;;;14.04;93.81;101600.00;5067903;28;20044;-88
2021/09/08 06:41:18;;;;;;;1.40;1.27;;;;;;;14.09;94.29;101605.47;5061933;28;20036;-85
2021/09/08 06:43:51;;;;;;;1.38;1.20;;;;;;;14.12;93.55;101607.63;5067291;28;20037;-88
2021/09/08 06:46:25;;;;;;;3.08;1.40;;;;;;;14.10;93.89;101598.91;5067151;28;20053;-86
2021/09/08 06:48:59;;;;;;;1.50;1.20;;;;;;;14.19;93.59;101602.66;5063304;28;20122;-86
2021/09/08 06:51:27;;;;;;;1.67;1.20;;;;;;;14.19;94.92;101594.44;5070268;28;20067;-86
2021/09/08 06:54:00;;;;;;;1.92;1.33;;;;;;;14.22;95.31;101595.81;5066924;28;20447;-84
2021/09/08 06:56:28;;;;;;;1.77;1.30;;;;;;;14.29;95.29;101596.31;5006294;28;20073;-85
2021/09/08 06:59:04;;;;;;;2.03;1.27;;;;;;;14.32;94.29;101598.50;5008615;28;20054;-84
2021/09/08 07:01:39;;;;;;;1.73;1.20;;;;;;;14.30;95.75;101595.22;5014950;28;20149;-86
2021/09/08 07:04:12;;;;;;;3.33;1.17;;;;;;;14.31;94.32;101590.53;5014085;28;20053;-84
2021/09/08 07:06:40;;;;;;;1.50;1.27;;;;;;;14.33;94.48;101591.91;5008429;28;20561;-84
2021/09/08 07:09:14;;;;;;;2.30;1.23;;;;;;;14.35;94.65;101595.19;5009765;28;20049;-84
2021/09/08 07:11:47;;;;;;;1.38;1.27;;;;;;;14.52;93.79;101599.47;5005899;28;20889;-86
2021/09/08 07:14:20;;;;;;;3.03;1.20;;;;;;;14.56;94.03;101595.06;5010981;28;20054;-84
2021/09/08 07:16:56;;;;;;;1.95;1.25;;;;;;;14.64;92.75;101597.22;5011276;28;20057;-85
2021/09/08 07:19:24;;;;;;;2.17;1.20;;;;;;;14.63;94.41;101590.09;5008273;28;20076;-85
2021/09/08 07:21:57;;;;;;;1.30;1.20;;;;;;;14.67;94.62;101599.41;5008556;28;20080;-85
2021/09/08 07:24:31;;;;;;;1.40;1.30;;;;;;;14.78;93.97;101600.94;5023209;28;20070;-83
2021/09/08 07:26:59;;;;;;;1.38;1.27;;;;;;;14.87;93.72;101595.66;5008604;28;20057;-86
2021/09/08 07:29:29;;;;;;;1.52;1.17;;;;;;;14.93;92.96;101594.53;5015909;28;20053;-84
2021/09/08 07:31:59;;;;;;;1.42;1.10;;;;;;;14.96;93.47;101591.22;5013553;28;20072;-85
2021/09/08 07:34:32;;;;;;;1.77;1.30;;;;;;;15.06;92.40;101592.22;5006734;28;21640;-84
2021/09/08 07:37:02;;;;;;;1.60;1.10;;;;;;;15.17;92.29;101601.19;5010572;28;20062;-84
2021/09/08 07:39:35;;;;;;;1.63;1.20;;;;;;;15.20;93.51;101593.19;5009258;28;21790;-83
2021/09/08 07:42:08;;;;;;;1.30;1.20;;;;;;;15.25;93.34;101595.09;5011262;28;20757;-84
2021/09/08 07:44:43;;;;;;;1.63;1.30;;;;;;;15.32;93.01;101590.06;5007670;28;20417;-86
2021/09/08 07:47:17;;;;;;;1.35;1.10;;;;;;;15.28;92.85;101570.63;5003468;28;20056;-84
2021/09/08 07:49:51;;;;;;;1.75;1.30;;;;;;;15.53;91.90;101589.84;5005120;28;20541;-87
2021/09/08 07:52:20;;;;;;;1.27;1.17;;;;;;;15.59;90.70;101592.25;5007497;28;20061;-83
2021/09/08 07:54:53;;;;;;;1.30;1.20;;;;;;;15.75;91.85;101592.06;5008493;28;20053;-88
2021/09/08 07:57:27;;;;;;;3.05;1.30;;;;;;;15.84;89.71;101589.53;5010112;28;20053;-88
2021/09/08 08:00:00;;;;;;;1.88;1.15;;;;;;;15.85;91.73;101585.69;5011824;28;20054;-85
2021/09/08 08:02:44;;;;;;;1.67;1.20;;;;;;;15.90;90.56;101580.94;5017770;28;20060;-84
2021/09/08 08:05:18;;;;;;;1.92;1.20;;;;;;;15.96;90.33;101570.69;5006346;28;20053;-86
2021/09/08 08:07:52;;;;;;;1.50;1.20;;;;;;;16.04;88.35;101569.25;5008762;28;20061;-86
2021/09/08 08:10:25;;;;;;;1.55;1.15;;;;;;;16.12;89.26;101568.59;5004705;28;20065;-83
2021/09/08 08:12:59;;;;;;;1.60;0.98;;;;;;;16.29;88.39;101571.63;5004000;28;20861;-84
2021/09/08 08:15:32;;;;;;;1.90;1.00;;;;;;;16.29;89.49;101579.03;5005908;28;20049;-85
2021/09/08 08:18:07;;;;;;;1.95;1.20;;;;;;;16.29;90.03;101565.31;5006727;28;20073;-85
2021/09/08 08:20:40;;;;;;;1.20;1.10;;;;;;;16.33;89.46;101571.84;5005059;28;20041;-87
2021/09/08 08:23:14;;;;;;;1.42;1.20;;;;;;;16.47;87.76;101569.16;5019496;28;20050;-88
2021/09/08 08:25:47;;;;;;;1.20;1.10;;;;;;;16.52;88.14;101568.25;5014304;28;20069;-89
2021/09/08 08:28:15;;;;;;;1.63;1.10;;;;;;;16.56;88.76;101561.91;5015723;28;20084;-84
2021/09/08 08:30:44;;;;;;;1.92;1.30;;;;;;;16.62;89.09;101555.19;5014145;28;20108;-88
2021/09/08 08:33:13;;;;;;;2.10;1.13;;;;;;;16.65;89.43;101554.59;5017873;28;20784;-86
2021/09/08 08:35:47;;;;;;;2.15;1.20;;;;;;;16.70;88.68;101548.19;5014778;28;20057;-84
2021/09/08 08:38:20;;;;;;;2.47;1.33;;;;;;;16.78;89.39;101544.78;5014416;28;20116;-88
2021/09/08 08:40:54;;;;;;;1.10;1.00;;;;;;;16.89;88.18;101539.13;5016658;28;20057;-84
2021/09/08 08:43:27;;;;;;;2.58;1.40;;;;;;;16.97;87.58;101538.41;5015913;28;20417;-89
2021/09/08 08:46:01;;;;;;;2.08;1.20;;;;;;;17.17;86.36;101534.50;5016417;28;20053;-83
2021/09/08 08:48:37;;;;;;;2.13;1.40;;;;;;;17.27;85.90;101538.97;5019064;28;20053;-84
2021/09/08 08:51:10;;;;;;;1.73;1.17;;;;;;;17.40;83.17;101538.19;5015867;28;20041;-84
2021/09/08 08:53:43;;;;;;;1.52;1.20;;;;;;;17.43;84.55;101545.81;5016862;28;20050;-85
2021/09/08 08:56:16;;;;;;;5.13;1.38;;;;;;;17.42;84.88;101541.44;5017483;28;20049;-88
2021/09/08 08:58:50;;;;;;;1.92;1.10;;;;;;;17.44;83.81;101546.63;5014804;28;20068;-88
2021/09/08 09:01:25;;;;;;;1.77;1.15;;;;;;;17.44;83.32;101547.47;5017855;28;20064;-87
2021/09/08 09:04:02;;;;;;;1.77;1.20;;;;;;;17.44;84.97;101541.97;5021724;28;20061;-88
2021/09/08 09:06:30;;;;;;;2.30;1.00;;;;;;;17.44;82.38;101543.88;5017792;28;20061;-86
2021/09/08 09:09:01;;;;;;;1.10;1.00;;;;;;;17.53;82.87;101541.25;5018888;28;20053;-88
2021/09/08 09:11:29;;;;;;;1.67;1.00;;;;;;;17.62;84.66;101548.47;5018403;28;20060;-84
2021/09/08 09:14:05;;;;;;;1.40;1.00;;;;;;;17.66;84.11;101538.50;5019756;28;20057;-87
2021/09/08 09:16:40;;;;;;;1.10;1.00;;;;;;;17.77;85.93;101536.34;5013720;28;20056;-86
2021/09/08 09:19:11;;;;;;;1.10;1.00;;;;;;;17.82;86.71;101533.47;5015571;28;20060;-89
2021/09/08 09:21:45;;;;;;;1.42;1.17;;;;;;;17.95;85.03;101526.34;5012900;28;20140;-85
2021/09/08 09:24:18;;;;;;;1.20;1.10;;;;;;;18.07;83.38;101536.81;5013599;28;20062;-86
2021/09/08 09:26:46;;;;;;;1.10;1.00;;;;;;;18.13;84.34;101527.31;5011783;28;20061;-87
2021/09/08 09:29:18;;;;;;;1.10;1.00;;;;;;;18.21;84.03;101527.69;5012960;28;20065;-86
2021/09/08 09:31:53;;;;;;;3.40;1.08;;;;;;;18.35;83.90;101525.69;5015503;28;20045;-85
2021/09/08 09:34:31;;;;;;;1.42;0.98;;;;;;;18.49;82.69;101525.63;5015371;28;20064;-83
2021/09/08 09:37:05;;;;;;;1.02;1.00;;;;;;;18.47;81.88;101517.69;5014057;28;20065;-87
2021/09/08 09:39:39;;;;;;;1.05;0.95;;;;;;;18.63;82.77;101520.06;5015666;28;20073;-84
2021/09/08 09:42:15;;;;;;;1.40;1.00;;;;;;;18.77;81.54;101520.00;5016695;28;20068;-86
2021/09/08 09:44:48;;;;;;;1.10;1.00;;;;;;;18.88;78.16;101518.63;5015271;28;20053;-86
2021/09/08 09:47:27;;;;;;;2.08;1.02;;;;;;;18.95;79.11;101515.44;4985743;28;20481;-84
2021/09/08 09:49:56;;;;;;;0.95;0.93;;;;;;;19.01;76.85;101503.91;5014079;28;20057;-86
2021/09/08 09:52:29;;;;;;;0.80;0.80;;;;;;;19.15;78.67;101512.09;5015057;28;20052;-85
2021/09/08 09:54:58;;;;;;;1.35;0.90;;;;;;;19.19;77.52;101515.84;5017753;28;20636;-87
2021/09/08 09:57:27;;;;;;;1.20;1.10;;;;;;;19.29;78.46;101502.91;5020933;28;20143;-88
2021/09/08 09:59:57;;;;;;;1.10;1.00;;;;;;;19.35;78.67;101507.16;5018154;28;20068;-88
2021/09/08 10:02:39;;;;;;;1.42;0.80;;;;;;;19.47;79.77;101496.31;5022420;28;20061;-85
2021/09/08 10:05:14;;;;;;;1.95;1.13;;;;;;;19.41;75.06;101497.59;5017757;28;20049;-87
2021/09/08 10:07:49;;;;;;;2.33;1.00;;;;;;;19.50;78.58;101495.69;5016349;28;20049;-88
2021/09/08 10:10:29;;;;;;;1.17;0.90;;;;;;;19.43;74.04;101480.72;5017811;28;20057;-86
2021/09/08 10:13:00;;;;;;;1.38;1.00;;;;;;;19.45;75.56;101476.50;5015670;28;20058;-84
2021/09/08 10:15:34;;;;;;;1.10;0.90;;;;;;;19.49;73.23;101477.47;5018402;28;20060;-88
2021/09/08 10:18:10;;;;;;;0.80;0.80;;;;;;;19.65;78.99;101480.63;5017247;28;20055;-83
2021/09/08 10:20:45;;;;;;;0.80;0.80;;;;;;;19.75;76.51;101467.59;5015365;28;20053;-88
2021/09/08 10:23:18;;;;;;;0.90;0.88;;;;;;;19.71;73.75;101476.53;5017870;28;20068;-85
2021/09/08 10:25:51;;;;;;;1.40;0.88;;;;;;;19.81;76.39;101467.16;5018724;28;20056;-87
2021/09/08 10:28:27;;;;;;;1.42;1.00;;;;;;;19.88;74.74;101467.50;5019852;28;20038;-87
2021/09/08 10:31:01;;;;;;;1.30;0.80;;;;;;;20.03;75.62;101459.88;5023895;28;20068;-86
2021/09/08 10:33:36;;;;;;;1.25;0.75;;;;;;;20.09;77.33;101457.75;5018680;28;20057;-87
2021/09/08 10:36:12;;;;;;;0.95;0.88;;;;;;;20.10;75.59;101460.19;5020805;28;20045;-92
2021/09/08 10:38:46;;;;;;;0.93;0.85;;;;;;;20.09;73.07;101457.75;5021161;28;20053;-85
2021/09/08 10:41:19;;;;;;;1.10;0.80;;;;;;;20.32;74.61;101447.34;5016750;28;20058;-87
2021/09/08 10:43:58;;;;;;;0.80;0.80;;;;;;;20.31;72.92;101448.47;5017311;28;20533;-89
2021/09/08 10:46:48;;;;;;;1.10;1.00;;;;;;;20.36;76.47;101440.81;4987400;28;21375;-89
2021/09/08 10:49:46;;;;;;;1.85;0.82;;;;;;;20.45;73.44;101434.44;5014839;28;20053;-82
2021/09/08 10:52:45;;;;;;;1.42;0.90;;;;;;;20.54;72.42;101430.53;5007835;28;20053;-83
2021/09/08 10:55:22;;;;;;;0.73;0.73;;;;;;;20.64;69.87;101431.31;5014644;28;20060;-88
2021/09/08 10:57:56;;;;;;;;;;;;;;;20.76;69.09;101428.69;5017661;28;20049;-82
2021/09/08 11:00:48;;;;;;;0.90;0.80;;;;;;;20.89;69.74;101424.09;5018159;28;19947;-86
2021/09/08 11:03:27;;;;;;;1.05;0.80;;;;;;;20.82;69.25;101424.59;5016393;28;20493;-89
2021/09/08 11:06:01;;;;;;;0.88;0.70;;;;;;;20.85;72.58;101423.13;5014004;28;20072;-84
2021/09/08 11:08:37;;;;;;;2.90;0.70;;;;;;;20.93;65.60;101415.94;5015684;28;20500;-86
2021/09/08 11:11:13;;;;;;;0.95;0.88;;;;;;;20.93;69.75;101416.75;5015711;28;20057;-85
2021/09/08 11:13:54;;;;;;;0.90;0.70;;;;;;;21.01;68.96;101409.56;5019247;28;20053;-87
2021/09/08 11:16:29;;;;;;;0.95;0.90;;;;;;;21.19;62.98;101401.97;5018855;28;20049;-86
2021/09/08 11:18:59;;;;;;;0.95;0.70;;;;;;;21.14;70.30;101404.91;5018428;28;20053;-87
2021/09/08 11:21:34;;;;;;;0.60;0.60;;;;;;;21.13;64.64;101395.81;5020848;28;20618;-88
2021/09/08 11:24:11;;;;;;;0.65;0.60;;;;;;;21.04;63.59;101401.38;5023381;28;20041;-85
2021/09/08 11:26:46;;;;;;;0.70;0.70;;;;;;;20.95;66.57;101395.09;5023200;28;20049;-88
2021/09/08 11:29:16;;;;;;;0.70;0.60;;;;;;;20.91;64.26;101399.69;5019365;28;20706;-84
2021/09/08 11:31:49;;;;;;;1.23;0.60;;;;;;;20.90;66.33;101398.03;5021179;28;20486;-85
2021/09/08 11:34:24;;;;;;;0.60;0.60;;;;;;;20.84;67.17;101391.91;5015554;28;20065;-89
2021/09/08 11:36:59;;;;;;;0.60;0.60;;;;;;;20.95;68.31;101383.22;5023473;28;20060;-89
2021/09/08 11:39:33;;;;;;;0.68;0.68;;;;;;;21.01;67.37;101395.72;5017533;28;21054;-89
2021/09/08 11:42:09;;;;;;;0.60;0.50;;;;;;;21.17;59.80;101401.47;5018661;28;21667;-85
2021/09/08 11:44:38;;;;;;;0.88;0.68;;;;;;;21.20;57.83;101398.06;5019374;28;20117;-83
2021/09/08 11:47:16;;;;;;;0.50;0.50;;;;;;;21.33;57.57;101396.19;4989310;28;20053;-86
2021/09/08 11:49:45;;;;;;;0.60;0.50;;;;;;;21.31;56.18;101390.97;5016829;28;20064;-85
2021/09/08 11:52:19;;;;;;;0.68;0.52;;;;;;;21.03;59.27;101385.94;5014211;28;20056;-87